WetterOnline ( http://www.wetteronline.de )

Wetter aktuell Altusried

Aktuelles Wetter: Leutkirch-Herlazhofen (671m)

6-stündlich | Neueste Meldungen
Ortszeit Temperatur Wetter
So, 22.04. 14:00 22.5° C wolkenlos
So, 22.04. 8:00 10.7° C wolkenlos
So, 22.04. 2:00 9.5° C wolkenlos
Sa, 21.04. 20:00 18.8° C fast wolkenlos
Sa, 21.04. 14:00 22.3° C fast wolkenlos
Sa, 21.04. 8:00 10.1° C wolkenlos
Sa, 21.04. 2:00 6.8° C wolkenlos
Fr, 20.04. 20:00 18.3° C wolkenlos
Ortszeit Temperatur Wetter
So, 22.04. 18:00 23.2° C leicht bewölkt
So, 22.04. 17:50 23.2° C wolkig
So, 22.04. 17:40 23.2° C leicht bewölkt
So, 22.04. 17:30 23.3° C leicht bewölkt
So, 22.04. 17:20 23.3° C leicht bewölkt
So, 22.04. 17:10 23.4° C wolkig
So, 22.04. 17:00 23.8° C leicht bewölkt
So, 22.04. 16:30 23.8° C fast wolkenlos
So, 22.04. 16:00 23.4° C wolkenlos
So, 22.04. 15:30 23.2° C wolkenlos
So, 22.04. 15:00 22.9° C fast wolkenlos
Ortszeit Relative Feuchte Sichtweite
So, 22.04. 14:00 45% 25 km
So, 22.04. 8:00 77% 35 km
So, 22.04. 2:00 77% 45 km
Sa, 21.04. 20:00 60% 70 km
Sa, 21.04. 14:00 42% 16 km
Sa, 21.04. 8:00 81% 40 km
Sa, 21.04. 2:00 88% 35 km
Fr, 20.04. 20:00 61% 60 km
Ortszeit Relative Feuchte Sichtweite
So, 22.04. 18:00 37% 29 km
So, 22.04. 17:50 37% -
So, 22.04. 17:40 40% -
So, 22.04. 17:30 35% 35 km
So, 22.04. 17:20 35% -
So, 22.04. 17:10 35% -
So, 22.04. 17:00 34% 35 km
So, 22.04. 16:30 33% 21 km
So, 22.04. 16:00 37% 17 km
So, 22.04. 15:30 39% 10 km
So, 22.04. 15:00 42% 15 km
Ortszeit Niederschlagsmenge Niederschlagsart
So, 22.04. 14:00 0.0 l/m2 in 6 Std. -
So, 22.04. 8:00 0.0 l/m2 in 12 Std. -
So, 22.04. 2:00 0.0 l/m2 in 6 Std. -
Sa, 21.04. 20:00 0.0 l/m2 in 12 Std. -
Sa, 21.04. 14:00 0.0 l/m2 in 6 Std. -
Sa, 21.04. 8:00 0.0 l/m2 in 12 Std. -
Sa, 21.04. 2:00 0.0 l/m2 in 6 Std. -
Fr, 20.04. 20:00 0.0 l/m2 in 12 Std. -
Ortszeit Niederschlagsmenge Niederschlagsart
So, 22.04. 18:00 0.0 l/m2 in 1 Std. -
So, 22.04. 17:50 keine Meldung -
So, 22.04. 17:40 keine Meldung -
So, 22.04. 17:30 0.0 l/m2 in 1 Std. -
So, 22.04. 17:20 keine Meldung -
So, 22.04. 17:10 keine Meldung -
So, 22.04. 17:00 0.0 l/m2 in 1 Std. -
So, 22.04. 16:30 0.0 l/m2 in 1 Std. -
So, 22.04. 16:00 0.0 l/m2 in 1 Std. -
So, 22.04. 15:30 0.0 l/m2 in 1 Std. -
So, 22.04. 15:00 0.0 l/m2 in 1 Std. -
Ortszeit Stärke Spitze Richtung
km/h Bft. km/h Grad Sektor
So, 22.04. 14:00 15 3 24 250° W
So, 22.04. 8:00 4 1 11 140° SO
So, 22.04. 2:00 7 2 11 200° S
Sa, 21.04. 20:00 4 1 25 230° SW
Sa, 21.04. 14:00 9 2 20 230° SW
Sa, 21.04. 8:00 7 2 11 140° SO
Sa, 21.04. 2:00 0 0 11 - -
Fr, 20.04. 20:00 4 1 18 200° S
Ortszeit Stärke Spitze Richtung
km/h Bft. km/h Grad Sektor
So, 22.04. 18:00 11 2 22 270° W
So, 22.04. 17:50 11 2 - 270° W
So, 22.04. 17:40 11 2 - 250° W
So, 22.04. 17:30 11 2 22 270° W
So, 22.04. 17:20 11 2 - 270° W
So, 22.04. 17:10 14 3 - 270° W
So, 22.04. 17:00 13 3 20 280° W
So, 22.04. 16:30 11 2 22 250° W
So, 22.04. 16:00 17 3 24 260° W
So, 22.04. 15:30 15 3 24 250° W
So, 22.04. 15:00 19 3 30 260° W
Ortszeit Untergrenze Bedeckung Gattung
total tief tief mittel hoch
So, 22.04. 14:00 - 0/8 0/8 - - -
So, 22.04. 8:00 - 0/8 0/8 - - -
So, 22.04. 2:00 - 0/8 0/8 - - -
Sa, 21.04. 20:00 10500 m 2/8 0/8 - - -
Sa, 21.04. 14:00 10500 m 1/8 0/8 - - -
Sa, 21.04. 8:00 - 0/8 0/8 - - -
Sa, 21.04. 2:00 - 0/8 0/8 - - -
Fr, 20.04. 20:00 - 0/8 0/8 - - -
Ortszeit Bedeckungsgrad in Achtel und Wolkenuntergrenze
So, 22.04. 18:00 6(9000m) 7(10500m)
So, 22.04. 17:50 6(9000m) 7(10500m)
So, 22.04. 17:40 4(9000m) 6(10500m)
So, 22.04. 17:30 1(9000m) 4(10500m)
So, 22.04. 17:20 1(9000m) 4(10500m)
So, 22.04. 17:10 7(10500m)
So, 22.04. 17:00 3(10500m)
So, 22.04. 16:30 2(10500m)
So, 22.04. 16:00 keine Wolken
So, 22.04. 15:30 keine Wolken
So, 22.04. 15:00 1(9000m)
Ortszeit Luftdruck NN (hPa) Tendenz (hPa in 3 Std.)
So, 22.04. 14:00 1014 - 1,1
So, 22.04. 8:00 1019 + 0,2
So, 22.04. 2:00 1020 - 0,3
Sa, 21.04. 20:00 1016 - 0,8
Sa, 21.04. 14:00 1018 - 1,1
Sa, 21.04. 8:00 1022 + 0,3
Sa, 21.04. 2:00 1024 - 0,4
Fr, 20.04. 20:00 1021 - 0,8
Ortszeit Luftdruck NN (hPa) Tendenz (hPa in 3 Std.)
So, 22.04. 18:00 1012 - 1,5
So, 22.04. 17:50 1012 keine Meldung
So, 22.04. 17:40 1012 keine Meldung
So, 22.04. 17:30 1012 - 1,5
So, 22.04. 17:20 1012 keine Meldung
So, 22.04. 17:10 1013 keine Meldung
So, 22.04. 17:00 1012 - 1,6
So, 22.04. 16:30 1013 - 1,6
So, 22.04. 16:00 1013 - 1,4
So, 22.04. 15:30 1014 - 1,1
So, 22.04. 15:00 1014 - 1,0
Ortszeit Schneehöhe (cm)
So, 22.04. 14:00 0
So, 22.04. 8:00 0
So, 22.04. 2:00 0
Sa, 21.04. 20:00 0
Sa, 21.04. 14:00 0
Sa, 21.04. 8:00 0
Sa, 21.04. 2:00 0
Fr, 20.04. 20:00 0
Ortszeit Schneehöhe (cm)
So, 22.04. 18:00 0
So, 22.04. 17:50 0
So, 22.04. 17:40 0
So, 22.04. 17:30 0
So, 22.04. 17:20 0
So, 22.04. 17:10 0
So, 22.04. 17:00 0
So, 22.04. 16:30 0
So, 22.04. 16:00 0
So, 22.04. 15:30 0
So, 22.04. 15:00 0
Link zu dieser Seite / Seite empfehlen

Das Wetter in ...